Date,TemperatureHighF,TemperatureAvgF,TemperatureLowF,DewpointHighF,DewpointAvgF,DewpointLowF,HumidityHigh,HumidityAvg,HumidityLow,PressureMaxIn,PressureMinIn,WindSpeedMaxMPH,WindSpeedAvgMPH,GustSpeedMaxMPH,PrecipitationSumIn
2013-1-1,31.6,15.6,7.7,21.9,5.7,-0.1,82,65,49,30.32,30.22,4,1,11,0.00
2013-1-2,31.3,21.3,5.6,15.8,11.9,-0.7,77,67,43,30.31,30.17,6,1,12,0.00
2013-1-3,27.8,23.9,15.1,24.2,18.6,10.6,88,80,74,30.36,30.16,14,2,14,0.00
2013-1-4,34.6,22.6,11.7,21.6,15.5,6.7,85,75,56,30.34,30.22,23,2,23,0.00
2013-1-5,35.8,28.7,18.0,33.0,25.6,15.1,96,88,68,30.31,29.99,17,2,17,0.02
2013-1-6,34.3,25.8,15.4,33.0,20.9,12.2,95,82,71,30.42,29.98,21,2,21,0.00
2013-1-7,40.9,27.5,13.3,26.1,20.4,10.4,90,76,47,30.41,30.17,20,3,20,0.00
2013-1-8,42.8,33.2,23.9,31.0,26.7,21.6,93,78,57,30.23,30.06,15,2,15,0.00
2013-1-9,38.0,35.4,31.8,31.5,30.1,28.1,88,81,75,30.28,30.06,19,3,19,0.00
2013-1-10,46.2,34.2,21.1,42.2,26.7,18.1,99,77,34,30.57,29.91,5,1,16,0.48
2013-1-11,50.5,47.7,42.5,49.6,47.5,42.2,100,99,94,29.91,29.69,6,3,14,0.22
2013-1-12,50.8,39.3,28.1,48.8,34.6,24.3,93,83,71,30.05,29.74,7,3,23,0.01
2013-1-13,28.4,17.0,11.9,26.1,10.6,5.4,94,76,71,30.35,29.94,16,2,16,0.01
2013-1-14,23.9,15.5,10.0,13.4,8.4,3.7,85,74,54,30.54,30.35,10,0,10,0.00
2013-1-15,32.2,19.9,9.5,22.5,12.5,6.1,92,74,45,30.53,30.18,5,0,5,0.00
2013-1-16,35.0,26.1,14.0,29.0,19.6,10.7,91,77,60,30.19,29.91,18,2,19,0.00
2013-1-17,32.8,24.0,16.9,30.5,12.3,4.9,91,62,40,30.50,30.14,16,1,16,0.00
2013-1-18,41.9,30.6,15.4,30.3,23.0,11.2,89,74,57,30.52,29.96,26,4,26,0.02
2013-1-19,46.5,37.0,22.7,37.2,28.9,9.0,77,72,47,30.03,29.79,21,4,29,0.00
2013-1-20,22.1,15.1,10.9,7.2,1.1,-1.1,60,53,46,30.39,30.05,13,2,31,0.00
2013-1-21,11.7,7.4,2.4,2.9,-6.4,-11.2,69,53,39,30.39,30.24,17,3,22,0.00
2013-1-22,11.4,5.0,-2.4,-4.8,-8.1,-12.2,66,54,42,30.51,30.38,14,1,16,0.00
2013-1-23,19.1,14.6,9.0,12.1,3.7,-4.8,76,62,51,30.48,30.21,14,2,21,0.00
2013-1-24,21.1,13.4,3.5,6.2,-1.5,-7.4,61,51,37,30.73,30.45,6,1,13,0.00
2013-1-25,30.0,22.3,17.7,20.5,14.1,2.7,86,71,48,30.45,30.05,11,1,18,0.00
2013-1-26,18.9,12.3,8.1,8.4,4.6,2.3,77,71,63,30.43,30.28,1,0,5,0.00
2013-1-27,35.9,31.2,23.3,35.7,26.0,15.1,99,82,60,30.44,29.94,22,2,22,0.27
2013-1-28,44.9,41.8,35.9,44.9,41.2,35.7,100,98,90,30.00,29.84,12,1,12,0.17
2013-1-29,61.3,54.9,41.1,60.7,54.7,41.1,100,99,96,29.84,29.41,17,3,17,0.89
2013-1-30,47.0,32.1,18.4,47.0,31.4,13.5,100,97,82,29.73,29.27,21,2,21,0.40
2013-1-31,18.3,15.6,12.3,13.5,9.0,5.3,81,75,66,29.94,29.73,23,4,23,0.00
2013-2-1,13.5,7.8,-2.0,9.8,-0.7,-9.7,85,68,58,30.48,30.25,18,2,20,0.00
2013-2-2,22.9,14.9,7.2,20.8,9.7,0.3,93,80,63,30.25,30.10,13,1,13,0.00
2013-2-3,27.0,17.3,8.6,21.0,10.7,2.5,87,75,61,30.15,30.05,15,1,15,0.00
2013-2-4,27.8,22.8,15.7,24.4,19.2,10.1,92,86,77,30.09,29.94,12,1,12,0.00
2013-2-5,29.8,21.8,6.0,27.5,17.4,1.2,92,83,71,30.17,29.89,10,1,15,0.01
2013-2-6,37.6,28.7,9.0,29.8,21.0,4.6,88,73,54,30.31,30.16,4,1,11,0.10
2013-2-7,34.7,32.3,27.3,33.9,31.5,26.8,99,97,82,30.16,29.93,9,0,9,27.04
2013-2-8,27.3,23.7,20.3,26.8,21.3,18.6,98,90,82,30.48,30.05,12,1,12,23.81
2013-2-9,32.5,27.2,24.2,27.2,23.2,21.1,96,85,74,30.48,30.15,16,1,16,3.53
2013-2-10,46.7,39.4,28.2,46.5,37.7,27.2,100,94,74,30.15,29.54,11,0,11,2.27
2013-2-11,42.2,34.0,29.5,34.5,26.0,21.8,81,72,67,30.11,29.57,0,0,0,0.00
2013-2-12,29.5,26.4,23.6,22.6,20.2,17.2,80,77,72,30.18,30.09,15,2,15,1.07
2013-2-13,42.8,33.8,20.5,33.7,29.9,18.5,97,86,63,29.99,29.78,1,0,4,6.09
2013-2-14,38.5,35.3,31.6,32.7,28.2,21.2,89,76,56,30.04,29.69,0,0,0,0.00
2013-2-15,31.9,26.0,18.0,25.4,13.4,6.3,82,59,37,30.27,30.04,14,2,14,22.60
2013-2-16,19.1,15.6,11.4,6.6,3.0,0.3,67,57,49,30.29,30.21,14,1,14,0.00
2013-2-17,30.6,19.9,4.7,15.0,6.0,0.3,86,58,33,30.32,30.04,4,1,16,0.00
2013-2-18,49.9,38.3,25.4,45.4,30.5,15.0,97,74,58,30.04,29.48,9,4,27,17.87
2013-2-19,25.0,13.8,8.6,21.7,7.3,0.8,87,75,66,30.30,29.65,10,6,29,0.00
2013-2-20,22.5,13.6,6.0,11.1,4.8,-2.0,82,68,60,30.46,30.32,4,1,15,0.00
2013-2-21,28.5,23.1,11.1,24.8,18.8,7.0,92,83,76,30.47,30.04,9,2,22,0.00
2013-2-22,33.1,28.6,23.6,31.6,26.1,21.4,96,90,84,30.02,29.86,17,2,17,52.80
2013-2-23,28.2,24.3,19.9,23.6,18.4,14.8,89,78,64,30.05,29.97,18,2,18,22.66
2013-2-24,45.1,26.3,12.6,40.0,17.7,9.4,89,71,48,30.22,30.05,9,0,9,5.61
2013-2-25,49.4,32.3,16.1,28.4,21.0,13.2,94,67,33,30.25,30.00,11,1,11,53.81
2013-2-26,35.8,33.3,31.3,32.2,29.1,24.1,99,85,62,30.00,29.60,24,4,24,0.01
2013-2-27,33.2,32.0,29.8,32.8,31.3,29.5,100,97,91,29.79,29.59,14,1,14,0.18
2013-2-28,36.3,32.4,26.7,31.9,27.4,18.4,98,82,69,30.15,29.79,15,2,15,0.14
2013-3-1,27.3,25.3,24.2,22.1,19.9,17.4,86,80,73,30.28,30.13,15,2,15,0.00
2013-3-2,32.1,23.8,12.8,25.2,15.0,6.4,80,69,56,30.29,30.24,14,1,14,0.00
2013-3-3,16.7,12.1,10.0,11.1,6.9,4.2,81,79,76,30.25,30.21,4,0,4,0.00
2013-3-4,33.5,25.8,12.6,23.6,17.1,6.5,89,70,50,30.21,30.05,6,2,13,0.00
2013-3-5,33.2,28.7,26.9,31.6,27.1,23.5,98,94,69,30.09,29.87,12,2,13,0.04
2013-3-6,32.2,28.2,26.4,26.6,24.8,23.6,95,87,77,30.35,30.09,14,2,15,0.12
2013-3-7,40.1,29.6,19.5,24.4,21.6,15.9,86,73,51,30.50,30.40,3,1,11,0.09
2013-3-8,42.1,30.7,14.3,27.8,21.3,11.1,93,69,49,30.56,30.34,5,1,13,0.02
2013-3-9,42.9,38.4,30.7,37.0,29.9,22.8,89,71,60,30.33,29.88,6,2,17,0.06
2013-3-10,47.0,44.1,40.9,47.0,43.7,37.3,100,99,86,29.90,29.66,5,1,12,0.91
2013-3-11,43.2,34.4,31.5,43.2,33.8,28.4,100,98,88,29.87,29.61,13,2,16,0.05
2013-3-12,36.0,31.0,25.1,28.9,25.3,18.6,93,80,62,30.10,29.88,18,5,24,0.01
2013-3-13,32.7,26.9,21.3,19.5,13.9,6.5,80,58,33,30.40,30.10,12,1,21,0.00
2013-3-14,33.4,24.7,19.7,30.1,18.5,14.4,94,77,56,30.40,30.13,4,0,10,0.00
2013-3-15,40.8,34.6,29.4,37.3,32.8,28.3,98,93,76,30.12,29.80,4,1,11,0.09
2013-3-16,33.1,30.9,29.0,32.8,26.0,20.1,100,83,69,30.20,29.78,15,1,15,0.00
2013-3-17,37.0,30.4,23.9,23.4,19.8,14.2,75,65,51,30.28,30.01,12,2,17,0.00
2013-3-18,34.0,28.9,19.1,32.5,24.3,9.6,95,83,66,30.00,29.68,26,4,31,0.07
2013-3-19,31.9,23.3,15.4,15.4,11.1,6.4,73,60,44,30.17,29.88,27,6,30,0.00
2013-3-20,23.2,17.9,11.7,12.1,5.1,-1.0,80,57,47,30.19,30.11,21,3,22,0.00
2013-3-21,32.5,22.1,11.6,15.0,9.9,2.8,78,60,45,30.14,30.09,11,1,16,0.00
2013-3-22,40.6,28.4,15.2,20.1,15.2,10.6,86,60,37,30.14,30.07,9,1,11,0.00
2013-3-23,45.2,33.6,22.1,25.2,19.7,13.9,90,60,30,30.20,30.07,10,1,15,0.00
2013-3-24,37.0,31.5,29.8,29.2,24.4,22.0,93,75,56,30.07,29.73,10,2,23,0.00
2013-3-25,36.2,33.1,28.8,27.9,25.5,22.6,83,73,64,30.16,29.79,14,2,19,0.00
2013-3-26,42.9,35.0,30.3,27.0,24.2,18.7,83,66,40,30.33,30.16,13,1,16,0.00
2013-3-27,43.5,35.0,25.3,27.2,23.1,18.5,85,64,40,30.39,30.32,9,1,12,0.00
2013-3-28,50.1,30.8,25.1,26.7,22.2,17.1,86,72,31,30.42,30.33,6,0,12,0.00
2013-3-29,55.9,44.9,28.7,32.8,22.9,17.6,87,46,23,30.38,30.28,11,0,11,0.00
2013-3-30,58.6,44.3,26.6,42.2,32.6,22.2,90,66,38,30.30,29.85,16,2,16,0.00
2013-3-31,56.9,44.3,32.9,43.4,34.4,20.5,97,71,40,29.98,29.76,23,4,23,0.00
2013-4-1,39.2,32.6,26.9,20.9,15.0,9.3,67,49,32,30.28,29.98,14,2,21,0.00
2013-4-2,44.2,32.9,23.0,19.4,13.7,5.6,77,48,22,30.39,30.27,15,2,20,0.00
2013-4-3,51.4,36.0,21.3,18.9,12.5,6.0,79,42,18,30.50,30.36,10,1,11,0.00
2013-4-4,58.9,43.5,26.9,33.6,23.4,12.3,72,47,25,30.35,30.02,14,2,15,0.00
2013-4-5,52.8,42.1,33.2,29.8,22.4,11.2,79,48,27,30.27,30.07,12,2,14,0.00
2013-4-6,66.8,52.2,35.3,50.0,33.0,21.6,89,50,28,30.17,29.63,21,6,36,0.08
2013-4-7,61.0,48.6,37.8,48.6,37.5,31.2,91,67,42,30.01,29.68,17,2,23,0.00
2013-4-8,68.3,53.6,38.0,57.0,47.1,32.4,99,80,56,30.03,29.58,35,4,35,0.34
2013-4-9,57.2,45.2,41.1,48.8,42.4,38.9,97,90,72,30.03,29.87,18,2,20,0.00
2013-4-10,40.8,37.9,36.8,40.3,37.5,36.3,99,98,97,30.06,29.91,16,4,29,0.20
2013-4-11,47.3,41.8,37.6,47.3,41.8,37.3,100,100,99,29.91,29.61,9,2,21,0.24
2013-4-12,44.5,37.9,35.5,39.1,32.9,30.3,100,82,72,29.91,29.62,12,3,25,0.00
2013-4-13,45.2,38.4,33.2,33.3,28.7,23.2,89,69,49,30.05,29.90,23,4,23,0.01
2013-4-14,72.1,53.1,37.3,48.7,37.3,27.9,81,57,38,30.05,29.67,28,4,28,0.00
2013-4-15,65.6,57.1,48.2,56.1,51.2,42.5,99,82,53,29.93,29.71,24,5,24,0.28
2013-4-16,56.0,45.7,36.5,41.2,35.2,31.0,96,70,42,30.32,29.99,4,1,17,0.01
2013-4-17,47.0,43.3,40.9,47.0,38.7,30.0,100,85,60,30.32,29.84,9,3,25,0.94
2013-4-18,62.3,52.1,38.0,60.9,50.6,31.9,100,95,76,29.86,29.45,35,6,35,1.66
2013-4-19,38.8,36.4,33.5,32.9,29.8,26.2,97,77,61,30.00,29.53,32,8,32,0.00
2013-4-20,46.8,37.0,27.8,28.5,20.6,14.2,81,54,27,30.47,30.00,15,1,15,0.02
2013-4-21,54.1,42.6,27.6,31.0,25.3,17.5,88,53,30,30.57,30.36,27,3,27,0.00
2013-4-22,68.1,54.6,40.1,37.0,32.7,29.0,66,45,27,30.36,30.05,16,2,16,0.00
2013-4-23,56.0,46.5,36.9,51.0,42.9,35.9,98,88,49,30.05,29.94,13,1,13,0.55
2013-4-24,51.1,41.9,34.6,37.4,30.3,24.0,97,67,35,30.16,30.00,19,3,19,0.06
2013-4-25,52.0,43.3,34.3,38.6,31.2,25.3,98,64,38,30.38,30.09,20,3,20,0.04
2013-4-26,67.6,52.4,33.7,45.4,37.7,27.2,84,59,40,30.38,30.26,23,4,23,0.00
2013-4-27,71.1,57.7,40.5,49.5,40.6,33.1,98,58,26,30.32,30.01,17,1,17,0.00
2013-4-28,69.1,58.6,51.9,53.3,49.3,40.0,93,73,49,30.01,29.85,9,0,9,0.00
2013-4-29,74.0,62.7,49.1,55.8,52.0,48.6,99,71,42,29.93,29.78,23,3,23,0.00
2013-4-30,86.1,71.8,60.2,60.5,55.8,49.2,88,61,30,29.96,29.78,23,6,23,0.00
2013-5-1,85.9,74.0,60.9,59.2,52.6,45.4,88,52,27,30.14,29.96,16,1,16,0.00
2013-5-2,63.4,51.6,43.6,52.9,44.4,38.2,98,77,57,30.27,30.13,16,2,16,0.37
2013-5-3,50.8,45.2,39.5,50.3,44.7,38.7,100,98,96,30.17,29.99,17,2,17,0.12
2013-5-4,72.1,59.9,49.2,55.8,49.3,44.7,99,72,38,30.07,29.97,15,1,15,0.00
2013-5-5,74.9,61.4,49.4,47.3,43.3,37.9,87,55,27,30.06,30.00,15,1,15,0.00
2013-5-6,59.6,52.8,49.9,46.0,43.2,41.2,83,70,51,30.07,30.01,6,0,6,0.00
2013-5-9,76.1,59.9,48.2,61.3,53.4,48.2,100,82,44,29.98,29.86,4,0,13,0.37
2013-5-10,49.4,47.5,44.1,48.3,45.8,44.1,100,94,84,30.03,29.81,4,1,16,0.06
2013-5-11,58.3,48.3,37.9,51.7,37.0,24.2,100,70,28,30.10,29.88,9,2,30,0.00
2013-5-12,55.7,45.7,34.7,30.2,25.3,19.6,76,48,25,30.18,30.09,6,2,22,0.00
2013-5-13,68.4,53.2,32.1,39.9,28.0,19.5,96,45,16,30.22,30.00,5,1,16,0.00
2013-5-14,95.1,74.1,51.0,57.4,46.7,34.9,62,41,15,30.00,29.65,6,1,17,0.00
2013-5-15,86.5,78.4,65.0,56.6,43.2,32.6,53,30,15,29.85,29.63,14,1,20,0.00
2013-5-16,87.6,70.0,52.3,52.8,44.7,38.3,93,46,20,29.99,29.84,10,0,10,0.00
2013-5-17,76.5,63.3,55.6,56.0,47.8,39.8,71,57,45,30.06,29.96,16,0,16,0.00
2013-5-18,56.6,54.9,53.5,48.8,47.9,47.3,84,77,71,30.05,30.03,1,0,1,0.00
2013-5-19,88.6,79.7,56.6,68.3,59.8,56.0,100,53,39,29.97,29.75,26,0,26,0.00
2013-5-20,89.9,78.1,64.8,69.6,60.3,50.4,99,59,27,29.80,29.71,19,2,19,0.20
2013-5-21,82.6,71.6,61.8,66.9,61.8,53.2,100,75,38,29.74,29.67,20,1,20,0.01
2013-5-22,73.7,66.1,61.2,68.1,61.5,54.6,100,87,53,29.78,29.64,14,1,14,0.37
2013-5-23,61.2,51.5,39.5,57.8,47.7,34.8,100,87,65,30.35,29.77,15,1,15,0.30
2013-5-24,68.6,51.0,34.6,39.1,34.2,27.3,97,58,27,30.49,30.34,10,0,10,0.00
2013-5-25,59.5,51.1,42.1,41.9,38.2,34.5,86,62,40,30.44,30.33,8,0,8,0.00
2013-5-26,70.9,55.6,41.5,56.6,45.3,35.5,94,71,33,30.34,30.15,11,0,11,0.02
2013-5-27,62.7,57.9,53.2,61.0,56.8,50.9,100,96,83,30.15,29.88,7,0,7,0.13
2013-5-28,77.0,68.3,57.0,72.2,65.7,56.9,100,92,79,29.89,29.72,19,0,19,0.12
2013-5-29,85.9,73.5,62.7,70.5,65.8,62.4,100,79,52,29.97,29.78,13,0,13,0.07
2013-5-30,72.8,71.0,69.8,67.0,65.0,63.2,87,81,73,29.93,29.88,12,1,12,0.00
2013-5-31,78.3,72.4,63.5,70.3,66.4,62.1,100,82,62,29.87,29.71,15,1,15,0.18
2013-6-1,77.4,67.6,61.5,70.1,64.9,60.1,100,91,66,29.75,29.68,13,1,17,0.07
2013-6-2,62.0,56.1,44.3,61.2,51.6,42.4,100,86,66,30.09,29.74,9,1,15,0.00
2013-6-3,74.7,57.0,41.2,56.6,44.1,39.7,100,68,29,30.17,30.05,2,0,6,0.00
2013-6-4,77.0,61.2,44.6,52.2,44.7,40.9,100,60,29,30.19,30.10,4,0,9,0.00
2013-6-5,71.3,60.1,54.7,57.6,51.1,43.6,85,73,52,30.13,29.97,5,0,12,0.03
2013-6-6,69.8,58.6,53.5,61.3,54.4,49.0,100,89,49,29.97,29.92,5,0,9,0.32
2013-7-9,86.5,78.5,71.8,79.3,75.8,71.8,100,92,71,29.98,29.85,6,0,20,0.02
2013-7-10,84.9,77.0,62.9,76.8,66.0,54.9,100,72,41,30.01,29.83,3,1,15,0.00
2013-7-11,87.4,72.3,58.7,63.5,56.6,47.8,100,64,28,30.11,30.02,1,0,9,0.00
2013-7-12,93.4,72.5,52.6,62.1,50.1,34.6,100,56,15,30.17,30.08,1,0,6,0.00
2013-7-13,92.3,74.7,56.3,68.1,58.6,53.6,100,64,28,30.16,30.10,1,0,9,0.00
2013-7-14,95.1,79.7,64.8,72.7,66.4,60.8,100,68,36,30.20,30.14,1,0,7,0.00
2013-7-15,88.2,78.6,69.3,75.8,72.0,68.5,100,82,61,30.25,30.20,0,0,4,0.00
2013-7-16,96.6,83.7,71.6,79.6,73.9,71.6,100,76,46,30.29,30.23,2,0,10,0.00
2013-7-17,97.1,84.1,71.6,76.8,73.2,70.2,100,73,42,30.30,30.16,2,0,10,0.00
2013-7-18,96.8,84.4,73.7,78.4,74.4,71.1,100,75,45,30.16,29.92,3,0,13,0.00
2013-7-19,95.1,83.8,72.0,75.8,72.2,67.0,100,72,40,29.92,29.74,7,2,23,0.16
2013-7-20,91.6,84.7,66.0,72.1,61.9,53.4,100,49,31,29.94,29.80,15,0,19,0.01
2013-7-21,90.5,68.0,63.1,73.8,67.8,63.1,100,100,41,29.96,29.91,1,0,1,0.01
2013-7-22,70.8,66.4,65.2,70.8,66.4,65.2,100,100,98,29.86,29.81,0,0,1,0.00
2013-7-23,78.8,69.6,58.7,68.8,61.1,53.7,100,77,45,29.99,29.68,4,1,14,0.03
2013-7-24,80.3,66.4,53.9,59.2,53.6,49.4,100,69,35,30.07,29.98,1,0,11,0.00
2013-7-25,82.6,68.1,50.8,61.7,55.8,50.8,100,69,40,30.12,30.01,2,0,10,0.00
2013-7-26,69.6,65.1,59.2,69.6,63.7,59.2,100,96,77,30.02,29.90,1,0,12,0.55
2013-7-27,63.2,58.7,53.1,59.0,51.9,45.5,100,80,53,29.94,29.89,3,1,15,0.01
2013-7-28,69.8,65.4,52.9,54.0,48.9,46.4,98,56,44,30.00,29.89,14,2,16,0.01
2013-9-20,74.2,66.7,56.2,70.1,61.6,52.0,100,85,60,29.85,29.74,4,1,16,12.48
2013-9-21,66.4,57.0,46.7,54.5,48.9,45.1,100,77,47,29.97,29.83,4,1,16,0.00
2013-9-22,73.5,56.0,42.6,54.5,46.5,42.6,100,76,35,30.08,29.98,1,0,7,0.00
2013-9-23,75.4,57.2,44.2,53.3,47.4,44.2,100,75,36,30.14,30.04,1,0,9,0.00
2013-9-24,77.2,59.2,43.6,55.9,49.4,43.6,100,75,35,30.08,29.95,2,0,12,0.00
2013-9-25,77.6,60.0,47.7,61.7,50.7,47.7,100,76,37,29.99,29.94,1,0,7,0.00
2013-9-26,83.8,65.7,45.5,62.0,50.4,43.5,100,65,26,30.10,29.98,9,0,9,0.00
2013-9-27,84.9,64.6,47.4,61.5,51.1,46.8,100,68,29,30.18,30.06,11,0,11,0.00
2013-9-28,83.8,62.7,49.9,59.4,51.7,44.3,100,71,38,30.10,29.94,20,1,20,0.00
2013-9-29,74.4,59.2,46.7,62.9,49.8,41.8,100,76,31,30.08,29.93,2,0,14,0.13
2013-9-30,78.1,61.2,41.5,58.5,47.4,40.7,100,67,27,30.04,29.88,10,0,10,0.00
2013-10-1,79.0,62.5,55.9,68.8,60.7,55.1,100,95,59,29.97,29.89,13,1,13,0.00
2013-10-2,84.1,68.6,55.9,64.0,52.1,40.2,100,64,26,30.10,29.97,1,0,9,0.00
2013-10-3,78.6,67.4,56.7,73.5,65.0,50.5,100,92,75,29.99,29.85,1,0,10,0.17
2013-10-4,74.4,69.1,63.4,71.6,68.1,63.4,100,97,89,29.99,29.90,5,0,10,0.01
2013-10-5,80.9,69.4,62.1,74.4,67.3,60.7,100,94,68,29.96,29.77,11,0,18,0.03
2013-10-6,64.7,53.0,41.8,60.6,45.5,37.5,100,79,41,29.81,29.71,14,1,14,0.04
2013-10-7,71.5,54.0,42.1,50.2,44.7,40.5,100,76,33,30.11,29.79,16,1,16,0.00
2013-10-8,80.9,59.4,41.6,56.9,46.5,41.6,100,70,27,30.21,30.11,12,0,12,0.00
2013-10-9,76.5,59.4,43.8,55.7,45.3,38.5,100,68,27,30.28,30.16,10,0,10,0.00
2013-10-10,78.6,59.2,42.2,59.0,49.4,42.2,100,76,36,30.20,30.06,1,0,7,0.00
2013-10-11,77.2,62.4,48.6,61.2,52.1,48.6,100,73,43,30.09,29.96,3,0,19,0.00
2013-10-12,68.3,60.5,46.8,65.8,54.2,43.7,100,81,53,30.20,29.96,12,0,12,0.12
2013-10-13,66.4,48.7,40.2,46.1,39.9,31.3,99,76,29,30.44,30.20,13,0,13,0.00
2013-10-14,62.0,41.0,36.2,53.0,39.1,36.0,100,94,50,30.44,30.40,9,0,9,0.00
2013-12-24,16.5,3.9,-6.5,12.0,-3.1,-12.9,82,72,59,30.68,30.42,2,0,12,0.00
2013-12-25,25.3,22.3,16.5,24.3,19.5,11.6,97,89,76,30.42,30.16,5,2,16,0.00
2013-12-26,32.1,23.7,13.1,30.3,19.0,8.4,93,82,70,30.36,30.17,5,1,17,0.00
2013-12-27,38.3,31.5,18.0,32.6,27.3,16.3,98,85,69,30.34,30.14,5,1,18,19.10
2013-12-28,45.5,37.6,29.8,34.8,31.7,27.5,97,80,61,30.13,29.85,5,1,13,0.02
2013-12-29,36.2,26.2,9.5,32.3,21.4,0.1,94,82,65,30.27,29.80,5,2,23,0.00
2013-12-30,12.1,5.3,-3.7,6.0,-3.1,-11.3,80,68,57,30.43,30.28,6,0,13,0.00
2013-12-31,11.2,4.7,-2.0,6.5,-0.9,-6.9,82,77,69,30.45,30.28,12,1,12,0.00
2014-1-1,28.1,17.0,9.0,27.9,14.9,5.7,99,91,86,30.37,30.24,4,1,18,0.00
2014-1-2,15.1,9.7,-0.6,12.9,5.4,-6.3,91,82,76,30.52,30.20,18,2,18,0.00